createdAt,value
2017-05-02T00:00:05.857Z,0
2017-05-02T00:01:06.114Z,0
2017-05-02T00:02:05.809Z,0
2017-05-02T00:03:06.134Z,0
2017-05-02T00:04:06.243Z,0
2017-05-02T00:05:05.831Z,0
2017-05-02T00:06:05.531Z,0
2017-05-02T00:07:06.145Z,0
2017-05-02T00:08:06.158Z,0
2017-05-02T00:09:05.547Z,0
2017-05-02T00:10:05.547Z,0
2017-05-02T00:11:05.959Z,0
2017-05-02T00:12:05.614Z,0
2017-05-02T00:13:06.237Z,0
2017-05-02T00:14:06.194Z,0
2017-05-02T00:15:05.884Z,0
2017-05-02T00:16:05.952Z,0
2017-05-02T00:17:06.046Z,0
2017-05-02T00:18:05.960Z,0
2017-05-02T00:19:06.220Z,0
2017-05-02T00:20:05.913Z,0
2017-05-02T00:21:06.227Z,0
2017-05-02T00:22:06.243Z,0
2017-05-02T00:23:05.944Z,0
2017-05-02T00:24:05.939Z,0
2017-05-02T00:25:05.678Z,0
2017-05-02T00:26:06.265Z,0
2017-05-02T00:27:05.639Z,0
2017-05-02T00:28:06.021Z,0
2017-05-02T00:29:05.961Z,0
2017-05-02T00:30:06.020Z,0
2017-05-02T00:31:06.283Z,0
2017-05-02T00:32:06.314Z,0
2017-05-02T00:33:06.299Z,0
2017-05-02T00:34:06.307Z,0
2017-05-02T00:35:05.994Z,0
2017-05-02T00:36:06.312Z,0
2017-05-02T00:37:06.376Z,0
2017-05-02T00:38:06.325Z,0
2017-05-02T00:39:06.020Z,0
2017-05-02T00:40:06.075Z,0
2017-05-02T00:41:06.436Z,0
2017-05-02T00:42:06.396Z,0
2017-05-02T00:43:06.053Z,0
2017-05-02T00:44:06.044Z,0
2017-05-02T00:45:06.051Z,0
2017-05-02T00:46:05.432Z,0
2017-05-02T00:47:06.117Z,0
2017-05-02T00:48:06.376Z,0
2017-05-02T00:49:06.075Z,0
2017-05-02T00:50:06.435Z,0
2017-05-02T00:51:05.821Z,0
2017-05-02T00:52:06.400Z,0
2017-05-02T00:53:06.457Z,0
2017-05-02T00:54:05.840Z,0
2017-05-02T00:55:06.418Z,0
2017-05-02T00:56:05.854Z,0
2017-05-02T00:57:05.538Z,0
2017-05-02T00:58:06.635Z,0
2017-05-02T00:59:06.490Z,0
2017-05-02T01:00:06.546Z,0
2017-05-02T01:01:06.453Z,0
2017-05-02T01:02:06.146Z,0
2017-05-02T01:03:06.463Z,0
2017-05-02T01:04:06.211Z,0
2017-05-02T01:05:06.476Z,0
2017-05-02T01:06:06.259Z,0
2017-05-02T01:07:06.216Z,0
2017-05-02T01:08:06.492Z,0
2017-05-02T01:09:06.186Z,0
2017-05-02T01:10:05.988Z,0
2017-05-02T01:11:06.500Z,0
2017-05-02T01:12:06.204Z,0
2017-05-02T01:13:06.618Z,0
2017-05-02T01:14:06.257Z,0
2017-05-02T01:15:06.578Z,0
2017-05-02T01:16:05.603Z,0
2017-05-02T01:17:06.538Z,0
2017-05-02T01:18:06.279Z,0
2017-05-02T01:19:06.291Z,0
2017-05-02T01:20:06.553Z,0
2017-05-02T01:21:06.557Z,0
2017-05-02T01:22:05.946Z,0
2017-05-02T01:23:06.578Z,0
2017-05-02T01:24:05.958Z,0
2017-05-02T01:25:06.007Z,0
2017-05-02T01:26:06.587Z,0
2017-05-02T01:27:06.591Z,0
2017-05-02T01:28:06.338Z,0
2017-05-02T01:29:06.602Z,0
2017-05-02T01:30:06.659Z,0
2017-05-02T01:31:06.611Z,0
2017-05-02T01:32:06.672Z,0
2017-05-02T01:33:06.105Z,0
2017-05-02T01:34:06.325Z,0
2017-05-02T01:35:06.636Z,0
2017-05-02T01:36:06.335Z,0
2017-05-02T01:37:06.021Z,0
2017-05-02T01:38:06.343Z,0
2017-05-02T01:39:06.669Z,0
2017-05-02T01:40:06.352Z,0
2017-05-02T01:41:06.671Z,0
2017-05-02T01:42:06.362Z,0
2017-05-02T01:43:06.689Z,0
2017-05-02T01:44:06.368Z,0
2017-05-02T01:45:06.386Z,0
2017-05-02T01:46:06.744Z,0
2017-05-02T01:47:06.702Z,0
2017-05-02T01:48:06.135Z,0
2017-05-02T01:49:06.192Z,0
2017-05-02T01:50:06.731Z,0
2017-05-02T01:51:06.778Z,0
2017-05-02T01:52:06.732Z,0
2017-05-02T01:53:06.525Z,0
2017-05-02T01:54:06.792Z,0
2017-05-02T01:55:06.445Z,0
2017-05-02T01:56:06.129Z,0
2017-05-02T01:57:06.137Z,0
2017-05-02T01:58:06.765Z,0
2017-05-02T01:59:06.510Z,0
2017-05-02T02:00:06.782Z,0
2017-05-02T02:01:05.936Z,0
2017-05-02T02:02:06.166Z,0
2017-05-02T02:03:06.845Z,0
2017-05-02T02:04:06.182Z,0
2017-05-02T02:05:07.101Z,0
2017-05-02T02:06:06.848Z,0
2017-05-02T02:07:06.816Z,0
2017-05-02T02:08:06.559Z,0
2017-05-02T02:09:06.822Z,0
2017-05-02T02:10:06.566Z,0
2017-05-02T02:11:06.523Z,0
2017-05-02T02:12:06.848Z,0
2017-05-02T02:13:06.845Z,0
2017-05-02T02:14:06.850Z,0
2017-05-02T02:15:06.861Z,0
2017-05-02T02:16:06.859Z,0
2017-05-02T02:17:06.608Z,0
2017-05-02T02:18:06.927Z,0
2017-05-02T02:19:06.312Z,0
2017-05-02T02:20:06.878Z,0
2017-05-02T02:21:06.579Z,0
2017-05-02T02:22:06.624Z,0
2017-05-02T02:23:06.900Z,0
2017-05-02T02:24:06.906Z,0
2017-05-02T02:25:06.291Z,0
2017-05-02T02:26:06.765Z,0
2017-05-02T02:27:06.914Z,0
2017-05-02T02:28:06.975Z,0
2017-05-02T02:29:06.631Z,0
2017-05-02T02:30:06.937Z,0
2017-05-02T02:31:06.627Z,0
2017-05-02T02:32:06.950Z,0
2017-05-02T02:33:07.010Z,0
2017-05-02T02:34:06.959Z,0
2017-05-02T02:35:06.652Z,0
2017-05-02T02:36:06.970Z,0
2017-05-02T02:37:06.664Z,0
2017-05-02T02:38:06.984Z,0
2017-05-02T02:39:06.050Z,0
2017-05-02T02:40:06.683Z,0
2017-05-02T02:41:06.999Z,0
2017-05-02T02:42:06.435Z,0
2017-05-02T02:43:07.004Z,0
2017-05-02T02:44:06.701Z,0
2017-05-02T02:45:07.066Z,0
2017-05-02T02:46:07.033Z,0
2017-05-02T02:47:07.027Z,0
2017-05-02T02:48:07.036Z,0
2017-05-02T02:49:06.731Z,0
2017-05-02T02:50:06.419Z,0
2017-05-02T02:51:06.738Z,0
2017-05-02T02:52:07.110Z,0
2017-05-02T02:53:07.114Z,0
2017-05-02T02:54:06.443Z,0
2017-05-02T02:55:06.779Z,0
2017-05-02T02:56:07.133Z,0
2017-05-02T02:57:06.826Z,0
2017-05-02T02:58:07.092Z,0
2017-05-02T02:59:06.839Z,0
2017-05-02T03:00:07.202Z,0
2017-05-02T03:01:07.152Z,0
2017-05-02T03:02:07.141Z,0
2017-05-02T03:03:07.113Z,0
2017-05-02T03:04:06.499Z,0
2017-05-02T03:05:07.126Z,0
2017-05-02T03:06:06.556Z,0
2017-05-02T03:07:06.872Z,0
2017-05-02T03:08:06.523Z,0
2017-05-02T03:09:06.845Z,0
2017-05-02T03:10:07.259Z,0
2017-05-02T03:11:07.211Z,0
2017-05-02T03:12:06.901Z,0
2017-05-02T03:13:06.867Z,0
2017-05-02T03:14:06.909Z,0
2017-05-02T03:15:07.227Z,0
2017-05-02T03:16:07.183Z,0
2017-05-02T03:17:07.241Z,0
2017-05-02T03:18:07.197Z,0
2017-05-02T03:19:06.892Z,0
2017-05-02T03:20:06.955Z,0
2017-05-02T03:21:07.213Z,0
2017-05-02T03:22:07.213Z,0
2017-05-02T03:23:07.221Z,0
2017-05-02T03:24:06.916Z,0
2017-05-02T03:25:07.384Z,0
2017-05-02T03:26:06.942Z,0
2017-05-02T03:27:06.702Z,0
2017-05-02T03:28:06.628Z,0
2017-05-02T03:29:07.011Z,0
2017-05-02T03:30:07.318Z,0
2017-05-02T03:31:07.320Z,0
2017-05-02T03:32:07.275Z,0
2017-05-02T03:33:06.706Z,0
2017-05-02T03:34:06.663Z,0
2017-05-02T03:35:06.976Z,0
2017-05-02T03:36:07.353Z,0
2017-05-02T03:37:07.346Z,0
2017-05-02T03:38:06.990Z,0
2017-05-02T03:39:07.312Z,0
2017-05-02T03:40:07.011Z,0
2017-05-02T03:41:07.371Z,0
2017-05-02T03:42:07.318Z,0
2017-05-02T03:43:07.329Z,0
2017-05-02T03:44:07.033Z,0
2017-05-02T03:45:07.340Z,0
2017-05-02T03:46:07.347Z,0
2017-05-02T03:47:06.778Z,0
2017-05-02T03:48:07.094Z,0
2017-05-02T03:49:07.052Z,0
2017-05-02T03:50:07.372Z,0
2017-05-02T03:51:07.375Z,0
2017-05-02T03:52:06.853Z,0
2017-05-02T03:53:07.084Z,0
2017-05-02T03:54:06.771Z,0
2017-05-02T03:55:06.782Z,0
2017-05-02T03:56:07.391Z,0
2017-05-02T03:57:07.151Z,0
2017-05-02T03:58:07.200Z,0
2017-05-02T03:59:07.416Z,0
2017-05-02T04:00:07.463Z,0
2017-05-02T04:01:06.808Z,0
2017-05-02T04:02:07.443Z,0
2017-05-02T04:03:07.491Z,0
2017-05-02T04:04:07.443Z,0
2017-05-02T04:05:07.447Z,0
2017-05-02T04:06:07.199Z,0
2017-05-02T04:07:07.518Z,0
2017-05-02T04:08:07.513Z,0
2017-05-02T04:09:07.476Z,0
2017-05-02T04:10:07.157Z,0
2017-05-02T04:11:07.173Z,0
2017-05-02T04:12:07.173Z,0
2017-05-02T04:13:07.497Z,0
2017-05-02T04:14:07.549Z,0
2017-05-02T04:15:06.883Z,0
2017-05-02T04:16:07.192Z,0
2017-05-02T04:17:07.199Z,0
2017-05-02T04:18:07.518Z,0
2017-05-02T04:19:07.570Z,0
2017-05-02T04:20:07.591Z,0
2017-05-02T04:21:06.908Z,0
2017-05-02T04:22:07.540Z,0
2017-05-02T04:23:07.545Z,0
2017-05-02T04:24:07.653Z,0
2017-05-02T04:25:07.560Z,0
2017-05-02T04:26:07.555Z,0
2017-05-02T04:27:07.360Z,0
2017-05-02T04:28:07.264Z,0
2017-05-02T04:29:07.038Z,0
2017-05-02T04:30:07.061Z,0
2017-05-02T04:31:07.589Z,0
2017-05-02T04:32:07.591Z,0
2017-05-02T04:33:07.598Z,0
2017-05-02T04:34:07.602Z,0
2017-05-02T04:35:07.296Z,0
2017-05-02T04:36:07.612Z,0
2017-05-02T04:37:07.672Z,0
2017-05-02T04:38:07.622Z,0
2017-05-02T04:39:07.070Z,0
2017-05-02T04:40:07.636Z,0
2017-05-02T04:41:07.377Z,0
2017-05-02T04:42:07.385Z,0
2017-05-02T04:43:07.703Z,0
2017-05-02T04:44:07.705Z,0
2017-05-02T04:45:07.711Z,0
2017-05-02T04:46:07.456Z,0
2017-05-02T04:47:07.364Z,0
2017-05-02T04:48:07.708Z,0
2017-05-02T04:49:07.062Z,0
2017-05-02T04:50:06.761Z,0
2017-05-02T04:51:07.691Z,0
2017-05-02T04:52:07.698Z,0
2017-05-02T04:53:07.705Z,0
2017-05-02T04:54:07.086Z,0
2017-05-02T04:55:07.506Z,0
2017-05-02T04:56:07.720Z,0
2017-05-02T04:57:07.414Z,0
2017-05-02T04:58:07.471Z,0
2017-05-02T04:59:07.439Z,0
2017-05-02T05:00:07.435Z,0
2017-05-02T05:01:07.438Z,0
2017-05-02T05:02:07.751Z,0
2017-05-02T05:03:07.183Z,0
2017-05-02T05:04:07.245Z,0
2017-05-02T05:05:07.202Z,0
2017-05-02T05:06:07.507Z,0
2017-05-02T05:07:07.467Z,0
2017-05-02T05:08:07.467Z,0
2017-05-02T05:09:07.483Z,0
2017-05-02T05:10:07.533Z,0
2017-05-02T05:11:07.536Z,0
2017-05-02T05:12:07.805Z,0
2017-05-02T05:13:07.808Z,0
2017-05-02T05:14:07.247Z,0
2017-05-02T05:15:07.819Z,0
2017-05-02T05:16:07.514Z,0
2017-05-02T05:17:07.834Z,0
2017-05-02T05:18:07.523Z,0
2017-05-02T05:19:07.274Z,0
2017-05-02T05:20:07.539Z,0
2017-05-02T05:21:07.857Z,0
2017-05-02T05:22:07.292Z,0
2017-05-02T05:23:07.242Z,0
2017-05-02T05:24:07.613Z,0
2017-05-02T05:25:07.259Z,0
2017-05-02T05:26:07.618Z,0
2017-05-02T05:27:07.364Z,0
2017-05-02T05:28:07.643Z,0
2017-05-02T05:29:07.600Z,0
2017-05-02T05:30:07.644Z,0
2017-05-02T05:31:07.607Z,0
2017-05-02T05:32:07.913Z,0
2017-05-02T05:33:07.970Z,0
2017-05-02T05:34:07.613Z,0
2017-05-02T05:35:07.983Z,0
2017-05-02T05:36:07.672Z,0
2017-05-02T05:37:07.321Z,0
2017-05-02T05:38:07.334Z,0
2017-05-02T05:39:07.742Z,0
2017-05-02T05:40:07.645Z,0
2017-05-02T05:41:07.424Z,0
2017-05-02T05:42:07.968Z,0
2017-05-02T05:43:07.354Z,0
2017-05-02T05:44:07.354Z,0
2017-05-02T05:45:08.034Z,0
2017-05-02T05:46:08.037Z,0
2017-05-02T05:47:07.693Z,0
2017-05-02T05:48:08.008Z,0
2017-05-02T05:49:08.013Z,0
2017-05-02T05:50:08.062Z,0
2017-05-02T05:51:07.705Z,0
2017-05-02T05:52:08.016Z,0
2017-05-02T05:53:08.033Z,0
2017-05-02T05:54:08.031Z,5
2017-05-02T05:55:08.040Z,5
2017-05-02T05:56:07.421Z,5
2017-05-02T05:57:08.099Z,5
2017-05-02T05:58:07.479Z,5
2017-05-02T05:59:07.752Z,5
2017-05-02T06:00:07.755Z,5
2017-05-02T06:01:07.443Z,5
2017-05-02T06:02:07.195Z,5
2017-05-02T06:03:08.132Z,5
2017-05-02T06:04:07.773Z,5
2017-05-02T06:05:08.086Z,5
2017-05-02T06:06:07.780Z,5
2017-05-02T06:07:07.530Z,5
2017-05-02T06:08:08.413Z,5
2017-05-02T06:09:08.115Z,5
2017-05-02T06:10:07.863Z,5
2017-05-02T06:11:07.548Z,5
2017-05-02T06:12:07.867Z,5
2017-05-02T06:13:08.169Z,5
2017-05-02T06:14:08.144Z,5
2017-05-02T06:15:07.519Z,5
2017-05-02T06:16:07.834Z,5
2017-05-02T06:17:08.158Z,5
2017-05-02T06:18:07.918Z,5
2017-05-02T06:19:08.164Z,5
2017-05-02T06:20:08.186Z,5
2017-05-02T06:21:07.915Z,5
2017-05-02T06:22:07.870Z,5
2017-05-02T06:23:08.232Z,5
2017-05-02T06:24:08.195Z,5
2017-05-02T06:25:07.937Z,5
2017-05-02T06:26:07.985Z,5
2017-05-02T06:27:07.610Z,5
2017-05-02T06:28:07.952Z,5
2017-05-02T06:29:08.214Z,5
2017-05-02T06:30:07.918Z,5
2017-05-02T06:31:08.327Z,5
2017-05-02T06:32:07.918Z,5
2017-05-02T06:33:07.716Z,5
2017-05-02T06:34:07.983Z,5
2017-05-02T06:35:07.678Z,5
2017-05-02T06:36:07.943Z,5
2017-05-02T06:37:07.641Z,5
2017-05-02T06:38:08.363Z,5
2017-05-02T06:39:08.278Z,5
2017-05-02T06:40:07.715Z,5
2017-05-02T06:41:08.019Z,5
2017-05-02T06:42:07.974Z,5
2017-05-02T06:43:07.672Z,5
2017-05-02T06:44:09.035Z,5
2017-05-02T06:45:08.301Z,5
2017-05-02T06:46:07.994Z,5
2017-05-02T06:47:07.743Z,5
2017-05-02T06:48:08.319Z,5
2017-05-02T06:49:08.016Z,5
2017-05-02T06:50:08.017Z,5
2017-05-02T06:51:07.398Z,5
2017-05-02T06:52:08.337Z,5
2017-05-02T06:53:08.383Z,5
2017-05-02T06:54:08.043Z,5
2017-05-02T06:55:08.066Z,5
2017-05-02T06:56:08.045Z,5
2017-05-02T06:57:08.054Z,5
2017-05-02T06:58:08.109Z,5
2017-05-02T06:59:08.384Z,5
2017-05-02T07:00:08.386Z,5
2017-05-02T07:01:08.073Z,5
2017-05-02T07:02:08.077Z,5
2017-05-02T07:03:07.515Z,10
2017-05-02T07:04:07.843Z,10
2017-05-02T07:05:08.104Z,10
2017-05-02T07:06:08.151Z,10
2017-05-02T07:07:08.421Z,10
2017-05-02T07:08:08.427Z,10
2017-05-02T07:09:08.165Z,10
2017-05-02T07:10:08.469Z,10
2017-05-02T07:11:08.436Z,10
2017-05-02T07:12:08.442Z,10
2017-05-02T07:13:07.879Z,10
2017-05-02T07:14:08.559Z,10
2017-05-02T07:15:08.459Z,10
2017-05-02T07:16:08.153Z,10
2017-05-02T07:17:08.157Z,10
2017-05-02T07:18:08.473Z,10
2017-05-02T07:19:08.885Z,10
2017-05-02T07:20:08.232Z,10
2017-05-02T07:21:07.607Z,10
2017-05-02T07:22:07.614Z,10
2017-05-02T07:23:08.192Z,5
2017-05-02T07:24:08.556Z,10
2017-05-02T07:25:07.887Z,5
2017-05-02T07:26:08.254Z,5
2017-05-02T07:27:08.262Z,10
2017-05-02T07:28:08.263Z,10
2017-05-02T07:29:08.218Z,10
2017-05-02T07:30:07.649Z,10
2017-05-02T07:31:08.240Z,10
2017-05-02T07:32:07.611Z,5
2017-05-02T07:33:08.601Z,5
2017-05-02T07:34:07.675Z,5
2017-05-02T07:35:08.565Z,10
2017-05-02T07:36:07.952Z,10
2017-05-02T07:37:08.572Z,10
2017-05-02T07:38:08.630Z,10
2017-05-02T07:39:08.585Z,10
2017-05-02T07:40:08.276Z,10
2017-05-02T07:41:08.280Z,10
2017-05-02T07:42:08.335Z,10
2017-05-02T07:43:08.294Z,10
2017-05-02T07:44:08.298Z,10
2017-05-02T07:45:08.410Z,10
2017-05-02T07:46:08.667Z,15
2017-05-02T07:47:08.730Z,15
2017-05-02T07:48:08.635Z,15
2017-05-02T07:49:08.427Z,15
2017-05-02T07:50:08.024Z,15
2017-05-02T07:51:08.718Z,20
2017-05-02T07:52:08.653Z,25
2017-05-02T07:53:08.349Z,30
2017-05-02T07:54:07.791Z,30
2017-05-02T07:55:08.671Z,25
2017-05-02T07:56:08.671Z,30
2017-05-02T07:57:08.467Z,30
2017-05-02T07:58:08.683Z,30
2017-05-02T07:59:08.429Z,30
2017-05-02T08:00:08.704Z,30
2017-05-02T08:01:08.704Z,30
2017-05-02T08:02:08.710Z,30
2017-05-02T08:03:08.145Z,30
2017-05-02T08:04:08.413Z,25
2017-05-02T08:05:08.721Z,25
2017-05-02T08:06:08.413Z,25
2017-05-02T08:07:08.719Z,25
2017-05-02T08:08:08.428Z,25
2017-05-02T08:09:08.773Z,20
2017-05-02T08:10:08.444Z,20
2017-05-02T08:11:08.447Z,20
2017-05-02T08:12:08.508Z,25
2017-05-02T08:13:08.196Z,25
2017-05-02T08:14:08.466Z,25
2017-05-02T08:15:08.161Z,25
2017-05-02T08:16:08.573Z,25
2017-05-02T08:17:07.859Z,25
2017-05-02T08:18:08.492Z,30
2017-05-02T08:19:08.542Z,30
2017-05-02T08:20:08.500Z,35
2017-05-02T08:21:08.553Z,35
2017-05-02T08:22:08.258Z,35
2017-05-02T08:23:08.516Z,40
2017-05-02T08:24:07.900Z,40
2017-05-02T08:25:08.221Z,40
2017-05-02T08:26:08.538Z,40
2017-05-02T08:27:08.871Z,45
2017-05-02T08:28:08.552Z,40
2017-05-02T08:29:08.554Z,45
2017-05-02T08:30:08.574Z,45
2017-05-02T08:31:08.262Z,45
2017-05-02T08:32:07.960Z,40
2017-05-02T08:33:08.687Z,35
2017-05-02T08:34:08.891Z,35
2017-05-02T08:35:08.904Z,30
2017-05-02T08:36:08.605Z,30
2017-05-02T08:37:08.602Z,25
2017-05-02T08:38:08.654Z,25
2017-05-02T08:39:08.668Z,25
2017-05-02T08:40:08.933Z,25
2017-05-02T08:41:08.634Z,25
2017-05-02T08:42:08.642Z,25
2017-05-02T08:43:08.940Z,25
2017-05-02T08:44:08.729Z,25
2017-05-02T08:45:08.958Z,25
2017-05-02T08:46:08.968Z,30
2017-05-02T08:47:08.717Z,30
2017-05-02T08:48:09.035Z,30
2017-05-02T08:49:09.089Z,30
2017-05-02T08:50:08.683Z,30
2017-05-02T08:51:08.997Z,35
2017-05-02T08:52:08.739Z,30
2017-05-02T08:53:08.708Z,35
2017-05-02T08:54:08.758Z,35
2017-05-02T08:55:09.070Z,35
2017-05-02T08:56:08.717Z,35
2017-05-02T08:57:08.730Z,40
2017-05-02T08:58:08.472Z,40
2017-05-02T08:59:08.736Z,45
2017-05-02T09:00:09.110Z,40
2017-05-02T09:01:08.756Z,40
2017-05-02T09:02:09.111Z,35
2017-05-02T09:03:09.122Z,35
2017-05-02T09:04:08.810Z,35
2017-05-02T09:05:08.782Z,35
2017-05-02T09:06:09.146Z,40
2017-05-02T09:07:08.165Z,35
2017-05-02T09:08:08.797Z,40
2017-05-02T09:09:08.799Z,35
2017-05-02T09:10:08.232Z,35
2017-05-02T09:11:09.215Z,30
2017-05-02T09:12:08.812Z,35
2017-05-02T09:13:09.189Z,30
2017-05-02T09:14:09.138Z,30
2017-05-02T09:15:08.830Z,30
2017-05-02T09:16:08.529Z,30
2017-05-02T09:17:08.591Z,30
2017-05-02T09:18:08.850Z,25
2017-05-02T09:19:09.167Z,25
2017-05-02T09:20:08.605Z,25
2017-05-02T09:21:09.020Z,25
2017-05-02T09:22:08.867Z,30
2017-05-02T09:23:09.497Z,30
2017-05-02T09:24:09.246Z,30
2017-05-02T09:25:08.897Z,30
2017-05-02T09:26:09.196Z,25
2017-05-02T09:27:08.899Z,25
2017-05-02T09:28:08.915Z,25
2017-05-02T09:29:09.291Z,25
2017-05-02T09:30:08.613Z,25
2017-05-02T09:31:09.287Z,25
2017-05-02T09:32:09.251Z,20
2017-05-02T09:33:09.267Z,20
2017-05-02T09:34:09.308Z,20
2017-05-02T09:35:08.962Z,20
2017-05-02T09:36:08.956Z,20
2017-05-02T09:37:08.705Z,25
2017-05-02T09:38:08.968Z,30
2017-05-02T09:39:09.338Z,35
2017-05-02T09:40:09.392Z,45
2017-05-02T09:41:09.042Z,50
2017-05-02T09:42:09.044Z,55
2017-05-02T09:43:09.063Z,50
2017-05-02T09:44:09.481Z,55
2017-05-02T09:45:09.115Z,60
2017-05-02T09:46:08.446Z,60
2017-05-02T09:47:09.083Z,55
2017-05-02T09:48:09.036Z,55
2017-05-02T09:49:09.087Z,60
2017-05-02T09:50:08.787Z,75
2017-05-02T09:51:09.411Z,85
2017-05-02T09:52:09.048Z,95
2017-05-02T09:53:08.752Z,95
2017-05-02T09:54:09.068Z,95
2017-05-02T09:55:09.070Z,90
2017-05-02T09:56:09.405Z,90
2017-05-02T09:57:09.148Z,85
2017-05-02T09:58:08.778Z,85
2017-05-02T09:59:08.798Z,75
2017-05-02T10:00:08.824Z,70
2017-05-02T10:01:08.557Z,70
2017-05-02T10:02:09.751Z,70
2017-05-02T10:03:09.121Z,70
2017-05-02T10:04:09.507Z,70
2017-05-02T10:05:09.475Z,75
2017-05-02T10:06:09.496Z,70
2017-05-02T10:07:09.487Z,70
2017-05-02T10:08:08.834Z,65
2017-05-02T10:09:08.551Z,60
2017-05-02T10:10:09.264Z,60
2017-05-02T10:11:09.171Z,60
2017-05-02T10:12:08.965Z,65
2017-05-02T10:13:09.279Z,65
2017-05-02T10:14:09.240Z,70
2017-05-02T10:15:09.190Z,70
2017-05-02T10:16:09.522Z,70
2017-05-02T10:17:09.257Z,70
2017-05-02T10:18:09.209Z,65
2017-05-02T10:19:08.901Z,65
2017-05-02T10:20:09.238Z,65
2017-05-02T10:21:09.326Z,60
2017-05-02T10:22:09.594Z,60
2017-05-02T10:23:09.299Z,60
2017-05-02T10:24:09.298Z,65
2017-05-02T10:25:09.247Z,65
2017-05-02T10:26:09.566Z,70
2017-05-02T10:27:09.358Z,80
2017-05-02T10:28:09.275Z,80
2017-05-02T10:29:08.350Z,85
2017-05-02T10:30:09.286Z,85
2017-05-02T10:31:08.964Z,80
2017-05-02T10:32:09.599Z,80
2017-05-02T10:33:09.656Z,75
2017-05-02T10:34:09.619Z,70
2017-05-02T10:35:09.638Z,70
2017-05-02T10:36:09.416Z,65
2017-05-02T10:37:09.733Z,60
2017-05-02T10:38:09.696Z,60
2017-05-02T10:39:09.654Z,55
2017-05-02T10:40:09.029Z,55
2017-05-02T10:41:09.707Z,60
2017-05-02T10:42:09.418Z,55
2017-05-02T10:43:09.737Z,55
2017-05-02T10:44:09.747Z,55
2017-05-02T10:45:09.739Z,50
2017-05-02T10:46:09.427Z,50
2017-05-02T10:47:09.150Z,50
2017-05-02T10:48:09.450Z,45
2017-05-02T10:49:09.118Z,45
2017-05-02T10:50:09.469Z,45
2017-05-02T10:51:09.779Z,45
2017-05-02T10:52:09.781Z,45
2017-05-02T10:53:09.528Z,45
2017-05-02T10:54:09.120Z,45
2017-05-02T10:55:09.804Z,45
2017-05-02T10:56:09.851Z,45
2017-05-02T10:57:09.517Z,45
2017-05-02T10:58:08.840Z,45
2017-05-02T10:59:09.819Z,45
2017-05-02T11:00:09.573Z,45
2017-05-02T11:01:09.162Z,45
2017-05-02T11:02:09.529Z,45
2017-05-02T11:03:09.486Z,45
2017-05-02T11:04:09.187Z,45
2017-05-02T11:05:09.601Z,50
2017-05-02T11:06:09.607Z,50
2017-05-02T11:07:09.824Z,45
2017-05-02T11:08:09.892Z,50
2017-05-02T11:09:09.215Z,50
2017-05-02T11:10:09.941Z,50
2017-05-02T11:11:10.002Z,45
2017-05-02T11:12:09.904Z,50
2017-05-02T11:13:09.603Z,50
2017-05-02T11:14:09.559Z,45
2017-05-02T11:15:09.717Z,45
2017-05-02T11:16:09.563Z,45
2017-05-02T11:17:09.936Z,45
2017-05-02T11:18:09.058Z,45
2017-05-02T11:19:09.328Z,45
2017-05-02T11:20:09.591Z,45
2017-05-02T11:21:09.701Z,45
2017-05-02T11:22:09.703Z,45
2017-05-02T11:23:09.614Z,45
2017-05-02T11:24:09.663Z,45
2017-05-02T11:25:10.088Z,45
2017-05-02T11:26:09.941Z,45
2017-05-02T11:27:09.944Z,45
2017-05-02T11:28:09.693Z,45
2017-05-02T11:29:09.697Z,45
2017-05-02T11:30:09.658Z,45
2017-05-02T11:31:09.670Z,45
2017-05-02T11:32:10.078Z,45
2017-05-02T11:33:09.677Z,40
2017-05-02T11:34:09.736Z,40
2017-05-02T11:35:09.745Z,40
2017-05-02T11:36:09.430Z,40
2017-05-02T11:37:10.007Z,40
2017-05-02T11:38:10.018Z,40
2017-05-02T11:39:10.024Z,40
2017-05-02T11:40:09.406Z,40
2017-05-02T11:41:10.094Z,40
2017-05-02T11:42:09.843Z,45
2017-05-02T11:43:10.051Z,45
2017-05-02T11:44:09.793Z,50
2017-05-02T11:45:09.488Z,50
2017-05-02T11:46:09.756Z,55
2017-05-02T11:47:09.449Z,55
2017-05-02T11:48:10.180Z,60
2017-05-02T11:49:09.825Z,60
2017-05-02T11:50:09.778Z,60
2017-05-02T11:51:10.155Z,60
2017-05-02T11:52:09.844Z,60
2017-05-02T11:53:09.857Z,60
2017-05-02T11:54:10.547Z,60
2017-05-02T11:55:10.124Z,60
2017-05-02T11:56:09.917Z,60
2017-05-02T11:57:10.183Z,60
2017-05-02T11:58:09.831Z,55
2017-05-02T11:59:10.154Z,55
2017-05-02T12:00:09.831Z,55
2017-05-02T12:01:09.905Z,50
2017-05-02T12:02:09.961Z,45
2017-05-02T12:03:10.066Z,45
2017-05-02T12:04:10.235Z,45
2017-05-02T12:05:09.940Z,45
2017-05-02T12:06:09.619Z,45
2017-05-02T12:07:09.574Z,40
2017-05-02T12:08:10.260Z,35
2017-05-02T12:09:10.319Z,35
2017-05-02T12:10:10.107Z,30
2017-05-02T12:11:10.364Z,30
2017-05-02T12:12:09.709Z,25
2017-05-02T12:13:09.983Z,20
2017-05-02T12:14:10.247Z,20
2017-05-02T12:15:10.599Z,15
2017-05-02T12:16:09.686Z,15
2017-05-02T12:17:10.010Z,15
2017-05-02T12:18:10.337Z,10
2017-05-02T12:19:09.765Z,10
2017-05-02T12:20:09.967Z,10
2017-05-02T12:21:09.973Z,10
2017-05-02T12:22:09.673Z,10
2017-05-02T12:23:09.762Z,10
2017-05-02T12:24:24.881Z,10
2017-05-02T12:25:10.465Z,10
2017-05-02T12:26:10.322Z,10
2017-05-02T12:27:10.115Z,10
2017-05-02T12:28:09.764Z,15
2017-05-02T12:29:10.026Z,10
2017-05-02T12:30:10.037Z,15
2017-05-02T12:31:10.354Z,15
2017-05-02T12:32:10.049Z,15
2017-05-02T12:33:09.745Z,20
2017-05-02T12:34:09.806Z,25
2017-05-02T12:35:10.115Z,25
2017-05-02T12:36:09.860Z,25
2017-05-02T12:37:10.132Z,25
2017-05-02T12:38:09.155Z,25
2017-05-02T12:39:10.459Z,25
2017-05-02T12:40:10.158Z,25
2017-05-02T12:41:10.167Z,25
2017-05-02T12:42:10.426Z,25
2017-05-02T12:43:10.176Z,25
2017-05-02T12:44:10.178Z,20
2017-05-02T12:45:09.876Z,20
2017-05-02T12:46:10.500Z,20
2017-05-02T12:47:10.558Z,15
2017-05-02T12:48:10.207Z,15
2017-05-02T12:49:10.159Z,15
2017-05-02T12:50:09.852Z,15
2017-05-02T12:51:10.167Z,15
2017-05-02T12:52:10.022Z,15
2017-05-02T12:53:10.544Z,15
2017-05-02T12:54:12.298Z,15
2017-05-02T12:57:10.434Z,20
2017-05-02T12:57:20.516Z,20
2017-05-02T12:58:20.889Z,20
2017-05-02T12:59:20.282Z,20
2017-05-02T13:00:20.229Z,20
2017-05-02T13:01:20.942Z,20
2017-05-02T13:02:20.285Z,15
2017-05-02T13:03:20.923Z,20
2017-05-02T13:04:20.874Z,20
2017-05-02T13:05:20.360Z,20
2017-05-02T13:06:20.994Z,20
2017-05-02T13:07:20.276Z,20
2017-05-02T13:08:20.333Z,20
2017-05-02T13:09:20.284Z,20
2017-05-02T13:10:20.994Z,20
2017-05-02T13:11:20.657Z,20
2017-05-02T13:12:20.618Z,20
2017-05-02T13:13:20.366Z,20
2017-05-02T13:14:20.943Z,20
2017-05-02T13:15:20.944Z,20
2017-05-02T13:16:20.739Z,20
2017-05-02T13:17:20.079Z,20
2017-05-02T13:18:20.782Z,20
2017-05-02T13:19:20.706Z,15
2017-05-02T13:20:21.031Z,15
2017-05-02T13:21:20.660Z,15
2017-05-02T13:22:20.994Z,15
2017-05-02T13:23:20.685Z,10
2017-05-02T13:24:20.791Z,10
2017-05-02T13:25:20.489Z,10
2017-05-02T13:26:21.063Z,10
2017-05-02T13:27:20.458Z,10
2017-05-02T13:28:21.026Z,10
2017-05-02T13:29:20.829Z,10
2017-05-02T13:30:20.464Z,10
2017-05-02T13:31:20.739Z,10
2017-05-02T13:32:20.849Z,10
2017-05-02T13:33:20.801Z,10
2017-05-02T13:34:20.961Z,10
2017-05-02T13:35:20.502Z,10
2017-05-02T13:36:20.818Z,10
2017-05-02T13:37:20.512Z,10
2017-05-02T13:38:20.786Z,10
2017-05-02T13:39:20.837Z,10
2017-05-02T13:40:21.154Z,10
2017-05-02T13:41:20.536Z,10
2017-05-02T13:42:20.548Z,10
2017-05-02T13:43:20.223Z,10
2017-05-02T13:44:21.286Z,10
2017-05-02T13:45:20.884Z,10
2017-05-02T13:46:21.149Z,10
2017-05-02T13:47:21.293Z,10
2017-05-02T13:48:21.204Z,10
2017-05-02T13:49:20.696Z,10
2017-05-02T13:50:20.600Z,10
2017-05-02T13:51:21.224Z,10
2017-05-02T13:52:20.607Z,10
2017-05-02T13:53:20.576Z,10
2017-05-02T13:54:20.673Z,10
2017-05-02T13:55:20.580Z,10
2017-05-02T13:56:20.955Z,10
2017-05-02T13:57:20.598Z,10
2017-05-02T13:58:20.960Z,10
2017-05-02T13:59:21.331Z,10
2017-05-02T14:00:20.604Z,10
2017-05-02T14:01:20.929Z,10
2017-05-02T14:02:21.299Z,5
2017-05-02T14:03:20.681Z,5
2017-05-02T14:04:20.998Z,5
2017-05-02T14:05:21.312Z,5
2017-05-02T14:06:21.323Z,5
2017-05-02T14:07:20.976Z,5
2017-05-02T14:08:20.667Z,5
2017-05-02T14:09:20.988Z,5
2017-05-02T14:10:21.297Z,5
2017-05-02T14:11:21.093Z,5
2017-05-02T14:12:21.053Z,5
2017-05-02T14:13:21.415Z,5
2017-05-02T14:14:21.720Z,5
2017-05-02T14:15:21.017Z,5
2017-05-02T14:16:21.126Z,5
2017-05-02T14:17:21.030Z,5
2017-05-02T14:18:20.464Z,5
2017-05-02T14:19:21.458Z,5
2017-05-02T14:20:20.794Z,5
2017-05-02T14:21:20.793Z,5
2017-05-02T14:22:20.812Z,5
2017-05-02T14:23:21.431Z,5
2017-05-02T14:24:21.138Z,5
2017-05-02T14:25:21.076Z,5
2017-05-02T14:26:20.824Z,5
2017-05-02T14:27:21.454Z,5
2017-05-02T14:28:21.420Z,5
2017-05-02T14:29:20.485Z,5
2017-05-02T14:30:21.113Z,5
2017-05-02T14:31:21.177Z,5
2017-05-02T14:32:21.175Z,5
2017-05-02T14:33:21.440Z,5